sensor_id;sensor_type;location;lat;lon;timestamp;P1;durP1;ratioP1;P2;durP2;ratioP2
26052;SDS011;13826;51.186;4.450;2022-07-23T00:01:01;11.07;;;5.72;;
26052;SDS011;13826;51.186;4.450;2022-07-23T00:03:26;8.18;;;5.93;;
26052;SDS011;13826;51.186;4.450;2022-07-23T00:05:52;10.35;;;5.80;;
26052;SDS011;13826;51.186;4.450;2022-07-23T00:08:18;9.75;;;5.63;;
26052;SDS011;13826;51.186;4.450;2022-07-23T00:10:43;13.05;;;6.45;;
26052;SDS011;13826;51.186;4.450;2022-07-23T00:13:09;7.90;;;5.57;;
26052;SDS011;13826;51.186;4.450;2022-07-23T00:15:35;9.65;;;5.55;;
26052;SDS011;13826;51.186;4.450;2022-07-23T00:18:01;7.78;;;5.57;;
26052;SDS011;13826;51.186;4.450;2022-07-23T00:20:26;12.43;;;6.63;;
26052;SDS011;13826;51.186;4.450;2022-07-23T00:22:53;13.77;;;6.35;;
26052;SDS011;13826;51.186;4.450;2022-07-23T00:25:20;9.95;;;6.50;;
26052;SDS011;13826;51.186;4.450;2022-07-23T00:27:47;11.73;;;6.63;;
26052;SDS011;13826;51.186;4.450;2022-07-23T00:30:12;8.77;;;5.93;;
26052;SDS011;13826;51.186;4.450;2022-07-23T00:32:48;10.35;;;5.93;;
26052;SDS011;13826;51.186;4.450;2022-07-23T00:35:16;11.20;;;5.63;;
26052;SDS011;13826;51.186;4.450;2022-07-23T00:37:44;11.93;;;5.57;;
26052;SDS011;13826;51.186;4.450;2022-07-23T00:40:10;10.18;;;6.07;;
26052;SDS011;13826;51.186;4.450;2022-07-23T00:42:36;8.88;;;6.18;;
26052;SDS011;13826;51.186;4.450;2022-07-23T00:45:02;8.77;;;5.88;;
26052;SDS011;13826;51.186;4.450;2022-07-23T00:47:28;11.15;;;5.97;;
26052;SDS011;13826;51.186;4.450;2022-07-23T00:49:54;14.80;;;6.28;;
26052;SDS011;13826;51.186;4.450;2022-07-23T00:52:20;10.43;;;6.63;;
26052;SDS011;13826;51.186;4.450;2022-07-23T00:54:46;9.90;;;6.05;;
26052;SDS011;13826;51.186;4.450;2022-07-23T00:57:12;11.57;;;6.90;;
26052;SDS011;13826;51.186;4.450;2022-07-23T00:59:40;8.90;;;5.50;;
26052;SDS011;13826;51.186;4.450;2022-07-23T01:02:06;11.18;;;6.28;;
26052;SDS011;13826;51.186;4.450;2022-07-23T01:04:32;13.82;;;6.90;;
26052;SDS011;13826;51.186;4.450;2022-07-23T01:06:57;8.85;;;6.22;;
26052;SDS011;13826;51.186;4.450;2022-07-23T01:09:23;11.13;;;6.10;;
26052;SDS011;13826;51.186;4.450;2022-07-23T01:11:50;10.70;;;6.55;;
26052;SDS011;13826;51.186;4.450;2022-07-23T01:14:17;14.10;;;6.35;;
26052;SDS011;13826;51.186;4.450;2022-07-23T01:16:47;10.15;;;6.15;;
26052;SDS011;13826;51.186;4.450;2022-07-23T01:19:14;16.05;;;6.10;;
26052;SDS011;13826;51.186;4.450;2022-07-23T01:21:42;10.45;;;5.93;;
26052;SDS011;13826;51.186;4.450;2022-07-23T01:24:10;13.07;;;6.68;;
26052;SDS011;13826;51.186;4.450;2022-07-23T01:26:36;18.27;;;8.00;;
26052;SDS011;13826;51.186;4.450;2022-07-23T01:29:03;11.50;;;6.18;;
26052;SDS011;13826;51.186;4.450;2022-07-23T01:31:29;14.60;;;6.38;;
26052;SDS011;13826;51.186;4.450;2022-07-23T01:33:55;13.23;;;6.43;;
26052;SDS011;13826;51.186;4.450;2022-07-23T01:36:21;7.38;;;6.07;;
26052;SDS011;13826;51.186;4.450;2022-07-23T01:38:47;10.57;;;6.40;;
26052;SDS011;13826;51.186;4.450;2022-07-23T01:41:13;9.57;;;6.18;;
26052;SDS011;13826;51.186;4.450;2022-07-23T01:43:39;11.10;;;6.40;;
26052;SDS011;13826;51.186;4.450;2022-07-23T01:46:04;11.98;;;6.47;;
26052;SDS011;13826;51.186;4.450;2022-07-23T01:48:30;15.45;;;6.72;;
26052;SDS011;13826;51.186;4.450;2022-07-23T01:50:56;8.43;;;6.55;;
26052;SDS011;13826;51.186;4.450;2022-07-23T01:53:22;13.80;;;7.10;;
26052;SDS011;13826;51.186;4.450;2022-07-23T01:55:47;10.55;;;6.43;;
26052;SDS011;13826;51.186;4.450;2022-07-23T01:58:13;14.38;;;6.82;;
26052;SDS011;13826;51.186;4.450;2022-07-23T02:00:39;14.05;;;6.75;;
26052;SDS011;13826;51.186;4.450;2022-07-23T02:03:04;12.52;;;7.35;;
26052;SDS011;13826;51.186;4.450;2022-07-23T02:05:30;11.75;;;7.47;;
26052;SDS011;13826;51.186;4.450;2022-07-23T02:07:59;10.55;;;6.95;;
26052;SDS011;13826;51.186;4.450;2022-07-23T02:10:25;12.43;;;6.95;;
26052;SDS011;13826;51.186;4.450;2022-07-23T02:12:52;11.90;;;7.88;;
26052;SDS011;13826;51.186;4.450;2022-07-23T02:15:18;11.52;;;6.97;;
26052;SDS011;13826;51.186;4.450;2022-07-23T02:17:44;13.05;;;7.65;;
26052;SDS011;13826;51.186;4.450;2022-07-23T02:20:10;10.00;;;7.13;;
26052;SDS011;13826;51.186;4.450;2022-07-23T02:22:36;10.85;;;6.85;;
26052;SDS011;13826;51.186;4.450;2022-07-23T02:25:06;12.27;;;7.03;;
26052;SDS011;13826;51.186;4.450;2022-07-23T02:27:33;10.13;;;7.55;;
26052;SDS011;13826;51.186;4.450;2022-07-23T02:29:59;8.85;;;6.55;;
26052;SDS011;13826;51.186;4.450;2022-07-23T02:32:25;14.05;;;7.95;;
26052;SDS011;13826;51.186;4.450;2022-07-23T02:34:52;13.20;;;6.93;;
26052;SDS011;13826;51.186;4.450;2022-07-23T02:37:18;11.77;;;7.07;;
26052;SDS011;13826;51.186;4.450;2022-07-23T02:39:44;12.02;;;7.55;;
26052;SDS011;13826;51.186;4.450;2022-07-23T02:42:10;13.77;;;7.15;;
26052;SDS011;13826;51.186;4.450;2022-07-23T02:44:35;13.68;;;7.25;;
26052;SDS011;13826;51.186;4.450;2022-07-23T02:47:01;12.07;;;6.68;;
26052;SDS011;13826;51.186;4.450;2022-07-23T02:49:27;12.05;;;7.22;;
26052;SDS011;13826;51.186;4.450;2022-07-23T02:51:53;10.85;;;6.80;;
26052;SDS011;13826;51.186;4.450;2022-07-23T02:54:18;12.48;;;7.13;;
26052;SDS011;13826;51.186;4.450;2022-07-23T02:56:44;12.10;;;7.10;;
26052;SDS011;13826;51.186;4.450;2022-07-23T02:59:10;15.02;;;7.63;;
26052;SDS011;13826;51.186;4.450;2022-07-23T03:01:35;10.63;;;7.80;;
26052;SDS011;13826;51.186;4.450;2022-07-23T03:04:01;12.68;;;7.43;;
26052;SDS011;13826;51.186;4.450;2022-07-23T03:06:27;10.60;;;7.28;;
26052;SDS011;13826;51.186;4.450;2022-07-23T03:08:53;11.80;;;7.50;;
26052;SDS011;13826;51.186;4.450;2022-07-23T03:11:19;10.73;;;7.00;;
26052;SDS011;13826;51.186;4.450;2022-07-23T03:13:45;11.60;;;7.63;;
26052;SDS011;13826;51.186;4.450;2022-07-23T03:16:10;10.93;;;6.88;;
26052;SDS011;13826;51.186;4.450;2022-07-23T03:18:36;11.38;;;7.28;;
26052;SDS011;13826;51.186;4.450;2022-07-23T03:21:02;11.60;;;8.80;;
26052;SDS011;13826;51.186;4.450;2022-07-23T03:23:28;12.20;;;8.05;;
26052;SDS011;13826;51.186;4.450;2022-07-23T03:25:54;12.63;;;7.63;;
26052;SDS011;13826;51.186;4.450;2022-07-23T03:28:19;9.30;;;6.53;;
26052;SDS011;13826;51.186;4.450;2022-07-23T03:30:45;15.80;;;7.65;;
26052;SDS011;13826;51.186;4.450;2022-07-23T03:33:16;14.52;;;8.25;;
26052;SDS011;13826;51.186;4.450;2022-07-23T03:35:43;12.85;;;7.90;;
26052;SDS011;13826;51.186;4.450;2022-07-23T03:38:09;13.20;;;7.82;;
26052;SDS011;13826;51.186;4.450;2022-07-23T03:40:35;10.65;;;7.70;;
26052;SDS011;13826;51.186;4.450;2022-07-23T03:43:01;13.45;;;8.13;;
26052;SDS011;13826;51.186;4.450;2022-07-23T03:45:26;12.00;;;8.57;;
26052;SDS011;13826;51.186;4.450;2022-07-23T03:47:52;11.38;;;7.75;;
26052;SDS011;13826;51.186;4.450;2022-07-23T03:50:18;10.75;;;7.88;;
26052;SDS011;13826;51.186;4.450;2022-07-23T03:52:44;13.35;;;8.40;;
26052;SDS011;13826;51.186;4.450;2022-07-23T03:55:10;13.63;;;8.00;;
26052;SDS011;13826;51.186;4.450;2022-07-23T03:57:35;11.45;;;8.80;;
26052;SDS011;13826;51.186;4.450;2022-07-23T04:00:02;12.23;;;7.75;;
26052;SDS011;13826;51.186;4.450;2022-07-23T04:02:29;10.30;;;6.88;;
26052;SDS011;13826;51.186;4.450;2022-07-23T04:04:55;11.85;;;7.75;;
26052;SDS011;13826;51.186;4.450;2022-07-23T04:07:20;13.18;;;7.90;;
26052;SDS011;13826;51.186;4.450;2022-07-23T04:09:46;10.88;;;7.60;;
26052;SDS011;13826;51.186;4.450;2022-07-23T04:12:12;12.23;;;7.75;;
26052;SDS011;13826;51.186;4.450;2022-07-23T04:14:38;11.90;;;7.13;;
26052;SDS011;13826;51.186;4.450;2022-07-23T04:17:03;16.10;;;10.15;;
26052;SDS011;13826;51.186;4.450;2022-07-23T04:19:29;13.68;;;8.27;;
26052;SDS011;13826;51.186;4.450;2022-07-23T04:21:55;9.68;;;7.65;;
26052;SDS011;13826;51.186;4.450;2022-07-23T04:24:22;13.45;;;7.70;;
26052;SDS011;13826;51.186;4.450;2022-07-23T04:26:47;11.60;;;7.38;;
26052;SDS011;13826;51.186;4.450;2022-07-23T04:29:13;14.35;;;8.30;;
26052;SDS011;13826;51.186;4.450;2022-07-23T04:31:39;12.95;;;7.85;;
26052;SDS011;13826;51.186;4.450;2022-07-23T04:34:04;13.90;;;8.00;;
26052;SDS011;13826;51.186;4.450;2022-07-23T04:36:30;12.40;;;7.85;;
26052;SDS011;13826;51.186;4.450;2022-07-23T04:38:56;11.05;;;8.05;;
26052;SDS011;13826;51.186;4.450;2022-07-23T04:41:21;9.88;;;7.00;;
26052;SDS011;13826;51.186;4.450;2022-07-23T04:43:47;13.07;;;7.85;;
26052;SDS011;13826;51.186;4.450;2022-07-23T04:46:12;10.30;;;7.32;;
26052;SDS011;13826;51.186;4.450;2022-07-23T04:48:38;12.77;;;7.65;;
26052;SDS011;13826;51.186;4.450;2022-07-23T04:51:04;10.13;;;7.00;;
26052;SDS011;13826;51.186;4.450;2022-07-23T04:53:30;10.32;;;8.02;;
26052;SDS011;13826;51.186;4.450;2022-07-23T04:55:56;21.55;;;9.07;;
26052;SDS011;13826;51.186;4.450;2022-07-23T04:58:22;11.63;;;7.07;;
26052;SDS011;13826;51.186;4.450;2022-07-23T05:00:48;14.73;;;7.35;;
26052;SDS011;13826;51.186;4.450;2022-07-23T05:03:13;10.73;;;6.75;;
26052;SDS011;13826;51.186;4.450;2022-07-23T05:05:39;11.07;;;6.22;;
26052;SDS011;13826;51.186;4.450;2022-07-23T05:08:05;11.88;;;6.32;;
26052;SDS011;13826;51.186;4.450;2022-07-23T05:10:31;9.52;;;6.47;;
26052;SDS011;13826;51.186;4.450;2022-07-23T05:12:56;7.53;;;5.32;;
26052;SDS011;13826;51.186;4.450;2022-07-23T05:15:22;7.35;;;5.40;;
26052;SDS011;13826;51.186;4.450;2022-07-23T05:17:48;11.57;;;6.38;;
26052;SDS011;13826;51.186;4.450;2022-07-23T05:20:14;8.52;;;5.82;;
26052;SDS011;13826;51.186;4.450;2022-07-23T05:22:40;11.13;;;5.43;;
26052;SDS011;13826;51.186;4.450;2022-07-23T05:25:06;8.52;;;5.38;;
26052;SDS011;13826;51.186;4.450;2022-07-23T05:27:31;15.43;;;5.28;;
26052;SDS011;13826;51.186;4.450;2022-07-23T05:29:57;8.68;;;5.97;;
26052;SDS011;13826;51.186;4.450;2022-07-23T05:32:23;5.85;;;5.05;;
26052;SDS011;13826;51.186;4.450;2022-07-23T05:34:49;8.15;;;4.60;;
26052;SDS011;13826;51.186;4.450;2022-07-23T05:37:15;9.05;;;5.38;;
26052;SDS011;13826;51.186;4.450;2022-07-23T05:39:41;9.15;;;5.43;;
26052;SDS011;13826;51.186;4.450;2022-07-23T05:42:06;8.35;;;5.63;;
26052;SDS011;13826;51.186;4.450;2022-07-23T05:44:32;5.32;;;4.32;;
26052;SDS011;13826;51.186;4.450;2022-07-23T05:46:58;8.73;;;5.40;;
26052;SDS011;13826;51.186;4.450;2022-07-23T05:49:24;9.10;;;5.60;;
26052;SDS011;13826;51.186;4.450;2022-07-23T05:51:50;9.82;;;5.18;;
26052;SDS011;13826;51.186;4.450;2022-07-23T05:54:15;9.23;;;4.72;;
26052;SDS011;13826;51.186;4.450;2022-07-23T05:56:41;7.57;;;4.80;;
26052;SDS011;13826;51.186;4.450;2022-07-23T05:59:07;8.70;;;5.07;;
26052;SDS011;13826;51.186;4.450;2022-07-23T06:01:33;6.35;;;4.70;;
26052;SDS011;13826;51.186;4.450;2022-07-23T06:03:58;7.45;;;4.43;;
26052;SDS011;13826;51.186;4.450;2022-07-23T06:06:24;6.38;;;4.78;;
26052;SDS011;13826;51.186;4.450;2022-07-23T06:08:50;6.88;;;4.75;;
26052;SDS011;13826;51.186;4.450;2022-07-23T06:11:15;7.57;;;4.88;;
26052;SDS011;13826;51.186;4.450;2022-07-23T06:13:41;8.48;;;5.03;;
26052;SDS011;13826;51.186;4.450;2022-07-23T06:16:07;8.70;;;4.97;;
26052;SDS011;13826;51.186;4.450;2022-07-23T06:18:32;8.45;;;4.50;;
26052;SDS011;13826;51.186;4.450;2022-07-23T06:20:58;8.02;;;4.50;;
26052;SDS011;13826;51.186;4.450;2022-07-23T06:23:24;9.07;;;4.47;;
26052;SDS011;13826;51.186;4.450;2022-07-23T06:25:49;6.30;;;4.45;;
26052;SDS011;13826;51.186;4.450;2022-07-23T06:28:15;6.72;;;4.50;;
26052;SDS011;13826;51.186;4.450;2022-07-23T06:30:41;6.05;;;4.30;;
26052;SDS011;13826;51.186;4.450;2022-07-23T06:33:06;7.43;;;4.35;;
26052;SDS011;13826;51.186;4.450;2022-07-23T06:35:33;9.63;;;4.10;;
26052;SDS011;13826;51.186;4.450;2022-07-23T06:37:59;6.50;;;4.70;;
26052;SDS011;13826;51.186;4.450;2022-07-23T06:40:24;7.88;;;4.70;;
26052;SDS011;13826;51.186;4.450;2022-07-23T06:42:50;7.95;;;4.00;;
26052;SDS011;13826;51.186;4.450;2022-07-23T06:45:16;6.50;;;3.53;;
26052;SDS011;13826;51.186;4.450;2022-07-23T06:47:42;5.57;;;3.83;;
26052;SDS011;13826;51.186;4.450;2022-07-23T06:50:08;7.95;;;3.97;;
26052;SDS011;13826;51.186;4.450;2022-07-23T06:52:34;4.28;;;3.30;;
26052;SDS011;13826;51.186;4.450;2022-07-23T06:54:59;4.60;;;3.55;;
26052;SDS011;13826;51.186;4.450;2022-07-23T06:57:25;5.90;;;3.70;;
26052;SDS011;13826;51.186;4.450;2022-07-23T06:59:51;5.45;;;3.60;;
26052;SDS011;13826;51.186;4.450;2022-07-23T07:02:17;8.10;;;3.97;;
26052;SDS011;13826;51.186;4.450;2022-07-23T07:04:43;6.10;;;3.80;;
26052;SDS011;13826;51.186;4.450;2022-07-23T07:07:08;6.30;;;3.75;;
26052;SDS011;13826;51.186;4.450;2022-07-23T07:09:34;6.57;;;3.20;;
26052;SDS011;13826;51.186;4.450;2022-07-23T07:12:00;5.78;;;3.45;;
26052;SDS011;13826;51.186;4.450;2022-07-23T07:14:26;5.88;;;3.67;;
26052;SDS011;13826;51.186;4.450;2022-07-23T07:16:52;4.72;;;3.17;;
26052;SDS011;13826;51.186;4.450;2022-07-23T07:19:18;5.63;;;3.75;;
26052;SDS011;13826;51.186;4.450;2022-07-23T07:21:43;4.72;;;3.40;;
26052;SDS011;13826;51.186;4.450;2022-07-23T07:24:09;5.47;;;4.05;;
26052;SDS011;13826;51.186;4.450;2022-07-23T07:26:35;7.40;;;4.15;;
26052;SDS011;13826;51.186;4.450;2022-07-23T07:29:01;6.50;;;3.50;;
26052;SDS011;13826;51.186;4.450;2022-07-23T07:31:27;8.00;;;3.83;;
26052;SDS011;13826;51.186;4.450;2022-07-23T07:33:56;4.47;;;3.85;;
26052;SDS011;13826;51.186;4.450;2022-07-23T07:36:25;8.73;;;4.18;;
26052;SDS011;13826;51.186;4.450;2022-07-23T07:38:51;7.63;;;3.63;;
26052;SDS011;13826;51.186;4.450;2022-07-23T07:41:16;7.85;;;3.67;;
26052;SDS011;13826;51.186;4.450;2022-07-23T07:43:47;6.57;;;3.35;;
26052;SDS011;13826;51.186;4.450;2022-07-23T07:46:13;4.88;;;3.28;;
26052;SDS011;13826;51.186;4.450;2022-07-23T07:48:39;7.95;;;3.70;;
26052;SDS011;13826;51.186;4.450;2022-07-23T07:51:04;5.82;;;3.53;;
26052;SDS011;13826;51.186;4.450;2022-07-23T07:53:30;8.27;;;3.72;;
26052;SDS011;13826;51.186;4.450;2022-07-23T07:55:56;5.32;;;3.00;;
26052;SDS011;13826;51.186;4.450;2022-07-23T07:58:22;8.63;;;3.30;;
26052;SDS011;13826;51.186;4.450;2022-07-23T08:00:47;5.38;;;3.85;;
26052;SDS011;13826;51.186;4.450;2022-07-23T08:03:13;7.50;;;3.58;;
26052;SDS011;13826;51.186;4.450;2022-07-23T08:05:39;8.40;;;4.72;;
26052;SDS011;13826;51.186;4.450;2022-07-23T08:08:05;4.38;;;3.80;;
26052;SDS011;13826;51.186;4.450;2022-07-23T08:10:30;9.32;;;4.30;;
26052;SDS011;13826;51.186;4.450;2022-07-23T08:12:57;9.52;;;3.95;;
26052;SDS011;13826;51.186;4.450;2022-07-23T08:15:26;9.15;;;3.65;;
26052;SDS011;13826;51.186;4.450;2022-07-23T08:17:53;4.60;;;3.28;;
26052;SDS011;13826;51.186;4.450;2022-07-23T08:20:19;6.55;;;3.55;;
26052;SDS011;13826;51.186;4.450;2022-07-23T08:22:48;7.05;;;3.22;;
26052;SDS011;13826;51.186;4.450;2022-07-23T08:25:36;6.68;;;3.75;;
26052;SDS011;13826;51.186;4.450;2022-07-23T08:28:05;7.25;;;3.92;;
26052;SDS011;13826;51.186;4.450;2022-07-23T08:30:32;5.00;;;3.85;;
26052;SDS011;13826;51.186;4.450;2022-07-23T08:32:59;7.68;;;4.45;;
26052;SDS011;13826;51.186;4.450;2022-07-23T08:35:36;7.20;;;4.10;;
26052;SDS011;13826;51.186;4.450;2022-07-23T08:38:05;4.55;;;3.85;;
26052;SDS011;13826;51.186;4.450;2022-07-23T08:40:33;9.32;;;4.13;;
26052;SDS011;13826;51.186;4.450;2022-07-23T08:43:02;6.20;;;3.53;;
26052;SDS011;13826;51.186;4.450;2022-07-23T08:45:32;5.80;;;3.80;;
26052;SDS011;13826;51.186;4.450;2022-07-23T08:48:02;7.97;;;3.92;;
26052;SDS011;13826;51.186;4.450;2022-07-23T08:50:28;8.23;;;4.15;;
26052;SDS011;13826;51.186;4.450;2022-07-23T08:52:54;6.38;;;3.78;;
26052;SDS011;13826;51.186;4.450;2022-07-23T08:55:22;3.50;;;3.00;;
26052;SDS011;13826;51.186;4.450;2022-07-23T08:57:48;6.80;;;3.22;;
26052;SDS011;13826;51.186;4.450;2022-07-23T09:00:15;6.20;;;4.20;;
26052;SDS011;13826;51.186;4.450;2022-07-23T09:02:43;4.63;;;3.53;;
26052;SDS011;13826;51.186;4.450;2022-07-23T09:05:09;5.53;;;2.95;;
26052;SDS011;13826;51.186;4.450;2022-07-23T09:07:36;4.40;;;3.03;;
26052;SDS011;13826;51.186;4.450;2022-07-23T09:10:09;4.40;;;3.72;;
26052;SDS011;13826;51.186;4.450;2022-07-23T09:12:36;5.82;;;3.22;;
26052;SDS011;13826;51.186;4.450;2022-07-23T09:15:08;4.43;;;2.53;;
26052;SDS011;13826;51.186;4.450;2022-07-23T09:17:37;7.20;;;3.43;;
26052;SDS011;13826;51.186;4.450;2022-07-23T09:20:11;4.05;;;3.05;;
26052;SDS011;13826;51.186;4.450;2022-07-23T09:22:47;4.72;;;3.25;;
26052;SDS011;13826;51.186;4.450;2022-07-23T09:25:17;4.47;;;2.83;;
26052;SDS011;13826;51.186;4.450;2022-07-23T09:30:21;4.25;;;2.22;;
26052;SDS011;13826;51.186;4.450;2022-07-23T09:33:04;5.22;;;2.28;;
26052;SDS011;13826;51.186;4.450;2022-07-23T09:35:47;4.63;;;2.42;;
26052;SDS011;13826;51.186;4.450;2022-07-23T09:38:22;1.23;;;1.08;;
26052;SDS011;13826;51.186;4.450;2022-07-23T09:41:08;2.88;;;1.77;;
26052;SDS011;13826;51.186;4.450;2022-07-23T09:43:34;1.55;;;1.20;;
26052;SDS011;13826;51.186;4.450;2022-07-23T09:48:46;4.00;;;2.00;;
26052;SDS011;13826;51.186;4.450;2022-07-23T09:51:12;2.92;;;1.83;;
26052;SDS011;13826;51.186;4.450;2022-07-23T09:53:57;4.47;;;2.42;;
26052;SDS011;13826;51.186;4.450;2022-07-23T09:56:23;4.50;;;2.50;;
26052;SDS011;13826;51.186;4.450;2022-07-23T09:58:52;3.28;;;2.15;;
26052;SDS011;13826;51.186;4.450;2022-07-23T10:01:37;4.80;;;2.35;;
26052;SDS011;13826;51.186;4.450;2022-07-23T10:04:04;4.30;;;2.33;;
26052;SDS011;13826;51.186;4.450;2022-07-23T10:06:31;3.42;;;2.47;;
26052;SDS011;13826;51.186;4.450;2022-07-23T10:08:58;5.28;;;3.08;;
26052;SDS011;13826;51.186;4.450;2022-07-23T10:11:25;2.25;;;1.98;;
26052;SDS011;13826;51.186;4.450;2022-07-23T10:13:53;4.60;;;2.20;;
26052;SDS011;13826;51.186;4.450;2022-07-23T10:16:20;4.05;;;2.55;;
26052;SDS011;13826;51.186;4.450;2022-07-23T10:18:47;5.25;;;2.55;;
26052;SDS011;13826;51.186;4.450;2022-07-23T10:21:16;8.98;;;2.33;;
26052;SDS011;13826;51.186;4.450;2022-07-23T10:23:58;4.32;;;2.33;;
26052;SDS011;13826;51.186;4.450;2022-07-23T10:26:42;5.30;;;2.25;;
26052;SDS011;13826;51.186;4.450;2022-07-23T10:34:43;2.83;;;1.92;;
26052;SDS011;13826;51.186;4.450;2022-07-23T10:37:17;4.43;;;2.33;;
26052;SDS011;13826;51.186;4.450;2022-07-23T10:40:19;3.97;;;2.10;;
26052;SDS011;13826;51.186;4.450;2022-07-23T10:42:51;4.07;;;2.05;;
26052;SDS011;13826;51.186;4.450;2022-07-23T10:45:29;3.78;;;1.83;;
26052;SDS011;13826;51.186;4.450;2022-07-23T10:47:55;5.10;;;2.40;;
26052;SDS011;13826;51.186;4.450;2022-07-23T10:50:38;3.55;;;1.95;;
26052;SDS011;13826;51.186;4.450;2022-07-23T10:53:09;3.28;;;1.60;;
26052;SDS011;13826;51.186;4.450;2022-07-23T10:58:10;2.80;;;1.50;;
26052;SDS011;13826;51.186;4.450;2022-07-23T11:00:36;2.45;;;1.48;;
26052;SDS011;13826;51.186;4.450;2022-07-23T11:03:06;5.57;;;1.58;;
26052;SDS011;13826;51.186;4.450;2022-07-23T11:05:57;1.92;;;1.30;;
26052;SDS011;13826;51.186;4.450;2022-07-23T11:08:23;1.95;;;1.10;;
26052;SDS011;13826;51.186;4.450;2022-07-23T11:10:50;1.77;;;1.10;;
26052;SDS011;13826;51.186;4.450;2022-07-23T11:31:55;2.65;;;1.60;;
26052;SDS011;13826;51.186;4.450;2022-07-23T11:37:00;1.98;;;1.70;;
26052;SDS011;13826;51.186;4.450;2022-07-23T11:39:27;2.35;;;1.40;;
26052;SDS011;13826;51.186;4.450;2022-07-23T11:41:54;1.65;;;1.40;;
26052;SDS011;13826;51.186;4.450;2022-07-23T11:44:27;5.25;;;1.55;;
26052;SDS011;13826;51.186;4.450;2022-07-23T11:46:58;3.17;;;1.33;;
26052;SDS011;13826;51.186;4.450;2022-07-23T11:49:26;1.67;;;1.20;;
26052;SDS011;13826;51.186;4.450;2022-07-23T11:52:11;2.85;;;1.70;;
26052;SDS011;13826;51.186;4.450;2022-07-23T11:57:23;10.75;;;1.88;;
26052;SDS011;13826;51.186;4.450;2022-07-23T11:59:56;1.80;;;1.27;;
26052;SDS011;13826;51.186;4.450;2022-07-23T12:02:28;2.63;;;1.60;;
26052;SDS011;13826;51.186;4.450;2022-07-23T12:04:54;2.20;;;1.25;;
26052;SDS011;13826;51.186;4.450;2022-07-23T12:07:28;6.70;;;2.00;;
26052;SDS011;13826;51.186;4.450;2022-07-23T12:09:54;4.60;;;1.40;;
26052;SDS011;13826;51.186;4.450;2022-07-23T12:12:21;5.90;;;1.83;;
26052;SDS011;13826;51.186;4.450;2022-07-23T12:14:51;2.50;;;1.48;;
26052;SDS011;13826;51.186;4.450;2022-07-23T12:17:19;2.53;;;1.48;;
26052;SDS011;13826;51.186;4.450;2022-07-23T12:19:46;2.45;;;1.70;;
26052;SDS011;13826;51.186;4.450;2022-07-23T12:22:12;3.92;;;1.65;;
26052;SDS011;13826;51.186;4.450;2022-07-23T12:27:25;4.07;;;1.75;;
26052;SDS011;13826;51.186;4.450;2022-07-23T12:29:52;1.75;;;1.25;;
26052;SDS011;13826;51.186;4.450;2022-07-23T12:32:25;2.58;;;1.38;;
26052;SDS011;13826;51.186;4.450;2022-07-23T12:35:03;1.90;;;1.60;;
26052;SDS011;13826;51.186;4.450;2022-07-23T12:37:38;2.30;;;1.42;;
26052;SDS011;13826;51.186;4.450;2022-07-23T12:40:21;2.38;;;1.58;;
26052;SDS011;13826;51.186;4.450;2022-07-23T12:42:54;3.35;;;1.23;;
26052;SDS011;13826;51.186;4.450;2022-07-23T12:46:12;2.55;;;1.60;;
26052;SDS011;13826;51.186;4.450;2022-07-23T12:51:02;6.10;;;1.70;;
26052;SDS011;13826;51.186;4.450;2022-07-23T12:53:29;3.28;;;1.90;;
26052;SDS011;13826;51.186;4.450;2022-07-23T12:56:09;4.13;;;1.58;;
26052;SDS011;13826;51.186;4.450;2022-07-23T13:01:33;3.25;;;1.77;;
26052;SDS011;13826;51.186;4.450;2022-07-23T13:06:43;5.30;;;2.00;;
26052;SDS011;13826;51.186;4.450;2022-07-23T13:09:11;2.10;;;1.40;;
26052;SDS011;13826;51.186;4.450;2022-07-23T13:11:39;2.35;;;1.40;;
26052;SDS011;13826;51.186;4.450;2022-07-23T13:14:05;2.35;;;1.48;;
26052;SDS011;13826;51.186;4.450;2022-07-23T13:16:31;2.53;;;1.83;;
26052;SDS011;13826;51.186;4.450;2022-07-23T13:18:58;5.18;;;1.75;;
26052;SDS011;13826;51.186;4.450;2022-07-23T13:21:25;3.53;;;1.83;;
26052;SDS011;13826;51.186;4.450;2022-07-23T13:23:53;2.33;;;1.77;;
26052;SDS011;13826;51.186;4.450;2022-07-23T13:26:19;3.42;;;2.10;;
26052;SDS011;13826;51.186;4.450;2022-07-23T13:28:45;3.92;;;1.70;;
26052;SDS011;13826;51.186;4.450;2022-07-23T13:31:10;2.75;;;2.10;;
26052;SDS011;13826;51.186;4.450;2022-07-23T13:33:36;5.35;;;2.20;;
26052;SDS011;13826;51.186;4.450;2022-07-23T13:36:02;2.67;;;1.63;;
26052;SDS011;13826;51.186;4.450;2022-07-23T13:38:28;3.33;;;1.60;;
26052;SDS011;13826;51.186;4.450;2022-07-23T13:40:54;3.03;;;1.90;;
26052;SDS011;13826;51.186;4.450;2022-07-23T13:43:21;5.70;;;1.95;;
26052;SDS011;13826;51.186;4.450;2022-07-23T13:45:48;5.45;;;1.73;;
26052;SDS011;13826;51.186;4.450;2022-07-23T13:48:14;3.13;;;1.98;;
26052;SDS011;13826;51.186;4.450;2022-07-23T13:50:41;2.50;;;1.80;;
26052;SDS011;13826;51.186;4.450;2022-07-23T13:53:09;2.88;;;2.10;;
26052;SDS011;13826;51.186;4.450;2022-07-23T13:55:37;2.53;;;1.73;;
26052;SDS011;13826;51.186;4.450;2022-07-23T13:58:04;4.07;;;2.30;;
26052;SDS011;13826;51.186;4.450;2022-07-23T14:00:31;6.68;;;1.70;;
26052;SDS011;13826;51.186;4.450;2022-07-23T14:02:59;3.85;;;1.95;;
26052;SDS011;13826;51.186;4.450;2022-07-23T14:05:25;2.80;;;1.88;;
26052;SDS011;13826;51.186;4.450;2022-07-23T14:07:51;2.03;;;1.70;;
26052;SDS011;13826;51.186;4.450;2022-07-23T14:10:17;5.35;;;1.70;;
26052;SDS011;13826;51.186;4.450;2022-07-23T14:12:45;4.00;;;2.00;;
26052;SDS011;13826;51.186;4.450;2022-07-23T14:15:12;4.22;;;2.13;;
26052;SDS011;13826;51.186;4.450;2022-07-23T14:17:39;3.13;;;1.80;;
26052;SDS011;13826;51.186;4.450;2022-07-23T14:20:06;4.13;;;2.13;;
26052;SDS011;13826;51.186;4.450;2022-07-23T14:22:33;3.10;;;2.20;;
26052;SDS011;13826;51.186;4.450;2022-07-23T14:24:59;7.57;;;2.63;;
26052;SDS011;13826;51.186;4.450;2022-07-23T14:27:26;3.42;;;2.55;;
26052;SDS011;13826;51.186;4.450;2022-07-23T14:29:53;4.90;;;2.50;;
26052;SDS011;13826;51.186;4.450;2022-07-23T14:32:19;4.88;;;2.83;;
26052;SDS011;13826;51.186;4.450;2022-07-23T14:34:46;6.40;;;2.42;;
26052;SDS011;13826;51.186;4.450;2022-07-23T14:37:12;5.13;;;2.40;;
26052;SDS011;13826;51.186;4.450;2022-07-23T14:39:38;4.15;;;2.60;;
26052;SDS011;13826;51.186;4.450;2022-07-23T14:42:05;4.75;;;2.90;;
26052;SDS011;13826;51.186;4.450;2022-07-23T14:44:32;3.17;;;2.35;;
26052;SDS011;13826;51.186;4.450;2022-07-23T14:46:58;3.15;;;2.38;;
26052;SDS011;13826;51.186;4.450;2022-07-23T14:49:25;7.28;;;2.50;;
26052;SDS011;13826;51.186;4.450;2022-07-23T14:51:51;5.95;;;2.50;;
26052;SDS011;13826;51.186;4.450;2022-07-23T14:54:17;5.55;;;2.58;;
26052;SDS011;13826;51.186;4.450;2022-07-23T14:56:42;3.75;;;2.60;;
26052;SDS011;13826;51.186;4.450;2022-07-23T14:59:08;3.85;;;2.50;;
26052;SDS011;13826;51.186;4.450;2022-07-23T15:01:34;6.90;;;2.47;;
26052;SDS011;13826;51.186;4.450;2022-07-23T15:04:01;6.53;;;2.80;;
26052;SDS011;13826;51.186;4.450;2022-07-23T15:06:27;5.75;;;3.00;;
26052;SDS011;13826;51.186;4.450;2022-07-23T15:08:53;5.53;;;2.80;;
26052;SDS011;13826;51.186;4.450;2022-07-23T15:11:18;5.85;;;2.67;;
26052;SDS011;13826;51.186;4.450;2022-07-23T15:13:44;6.10;;;2.78;;
26052;SDS011;13826;51.186;4.450;2022-07-23T15:16:10;5.63;;;3.35;;
26052;SDS011;13826;51.186;4.450;2022-07-23T15:18:36;5.28;;;3.13;;
26052;SDS011;13826;51.186;4.450;2022-07-23T15:21:02;4.80;;;3.08;;
26052;SDS011;13826;51.186;4.450;2022-07-23T15:23:28;3.85;;;2.50;;
26052;SDS011;13826;51.186;4.450;2022-07-23T15:25:54;3.78;;;2.60;;
26052;SDS011;13826;51.186;4.450;2022-07-23T15:28:20;4.68;;;3.28;;
26052;SDS011;13826;51.186;4.450;2022-07-23T15:30:47;4.63;;;3.20;;
26052;SDS011;13826;51.186;4.450;2022-07-23T15:33:13;4.22;;;3.30;;